Time;durP1;ratioP1;P1;durP2;ratioP2;P2;SDS_P1;SDS_P2;PMS_P1;PMS_P2;Temp;Humidity;BMP_temperature;BMP_pressure;BME280_temperature;BME280_humidity;BME280_pressure;Samples;Min_cycle;Max_cycle;Signal;HPM_P1;HPM_P2
2021/12/05 00:17:50;;;;;;;;;;;5.40;80.10;;;;;;4998222;28;19960;-73
2021/12/05 00:20:55;;;;;;;;;;;5.50;80.50;;;;;;5042865;28;19988;-73
2021/12/05 00:23:28;;;;;;;;;;;5.60;80.50;;;;;;5061800;28;20284;-73
2021/12/05 00:25:55;;;;;;;;;;;5.60;79.30;;;;;;5058111;28;19964;-74
2021/12/05 01:03:37;;;;;;;;;;;5.40;80.20;;;;;;5040451;28;19952;-73
2021/12/05 01:06:44;;;;;;;;;;;5.40;80.80;;;;;;5040709;28;20347;-73
2021/12/05 01:12:12;;;;;;;;;;;5.30;80.50;;;;;;5040384;28;19942;-73
2021/12/05 01:17:34;;;;;;;;;;;5.40;79.80;;;;;;5040856;28;20426;-73
2021/12/05 01:20:01;;;;;;;;;;;5.40;80.30;;;;;;5040184;28;19954;-73
2021/12/05 01:22:30;;;;;;;;;;;5.40;79.60;;;;;;5040465;28;20037;-75
2021/12/05 01:33:05;;;;;;;;;;;5.30;79.20;;;;;;5044300;28;19951;-73
2021/12/05 01:38:21;;;;;;;;;;;5.30;80.20;;;;;;5064647;28;20364;-74
2021/12/05 01:48:56;;;;;;;;;;;5.50;80.00;;;;;;5083780;28;20044;-74
2021/12/05 01:56:41;;;;;;;;;;;5.50;79.80;;;;;;5078507;28;19947;-74
2021/12/05 01:59:22;;;;;;;;;;;5.40;80.50;;;;;;5064140;28;20070;-74
2021/12/05 02:31:55;;;;;;;;;;;5.80;81.10;;;;;;5063139;28;19953;-74
2021/12/05 02:34:36;;;;;;;;;;;5.70;80.70;;;;;;5063173;28;19946;-74
2021/12/05 02:39:54;;;;;;;;;;;5.70;81.20;;;;;;5062081;28;19994;-74
2021/12/05 02:42:32;;;;;;;;;;;5.70;81.50;;;;;;5063101;28;20439;-74
2021/12/05 02:45:03;;;;;;;;;;;5.70;81.60;;;;;;5062795;28;20424;-74
2021/12/05 02:47:29;;;;;;;;;;;5.60;82.50;;;;;;5063237;28;19961;-74
2021/12/05 02:49:56;;;;;;;;;;;5.60;82.20;;;;;;5044508;28;19990;-74
2021/12/05 02:52:28;;;;;;;;;;;5.60;81.60;;;;;;5062977;28;19981;-74
2021/12/05 02:54:56;;;;;;;;;;;5.60;81.20;;;;;;5044432;28;19976;-74
2021/12/05 02:57:33;;;;;;;;;;;5.60;81.50;;;;;;5068798;28;20682;-74
2021/12/05 03:00:06;;;;;;;;;;;5.50;81.40;;;;;;5082826;28;20372;-74
2021/12/05 03:02:39;;;;;;;;;;;5.40;81.60;;;;;;5064692;28;20064;-74
2021/12/05 03:05:09;;;;;;;;;;;5.30;82.00;;;;;;5082995;28;19971;-74
2021/12/05 03:07:39;;;;;;;;;;;5.30;82.30;;;;;;5077405;28;19947;-74
2021/12/05 03:10:05;;;;;;;;;;;5.20;82.50;;;;;;5064317;28;19950;-74
2021/12/05 03:12:33;;;;;;;;;;;5.20;82.90;;;;;;5069833;28;19952;-74
2021/12/05 03:15:02;;;;;;;;;;;5.10;82.80;;;;;;5077767;28;19971;-74
2021/12/05 03:17:27;;;;;;;;;;;5.10;82.50;;;;;;5044473;28;19951;-74
2021/12/05 03:19:53;;;;;;;;;;;5.10;82.60;;;;;;5071828;28;19946;-74
2021/12/05 03:22:18;;;;;;;;;;;5.10;82.60;;;;;;5081943;28;19946;-74
2021/12/05 03:24:45;;;;;;;;;;;5.10;82.40;;;;;;5082255;28;19955;-74
2021/12/05 03:27:10;;;;;;;;;;;5.10;82.60;;;;;;5063782;28;19970;-74
2021/12/05 03:29:36;;;;;;;;;;;5.10;82.50;;;;;;5062606;28;19950;-74
2021/12/05 03:32:01;;;;;;;;;;;5.10;82.50;;;;;;5062320;28;19941;-74
2021/12/05 03:34:27;;;;;;;;;;;5.10;82.70;;;;;;5044425;28;20344;-74
2021/12/05 03:36:54;;;;;;;;;;;5.20;83.00;;;;;;5061885;28;20264;-74
2021/12/05 03:39:20;;;;;;;;;;;5.20;83.10;;;;;;5062451;28;20018;-74
2021/12/05 03:41:46;;;;;;;;;;;5.20;83.20;;;;;;5061863;28;19976;-74
2021/12/05 03:44:13;;;;;;;;;;;5.30;83.00;;;;;;5062304;28;19940;-74
2021/12/05 03:46:40;;;;;;;;;;;5.40;82.60;;;;;;5081324;28;20081;-74
2021/12/05 03:49:07;;;;;;;;;;;5.40;82.40;;;;;;5081613;28;19985;-74
2021/12/05 03:51:34;;;;;;;;;;;5.40;82.40;;;;;;5082000;28;19996;-74
2021/12/05 03:54:00;;;;;;;;;;;5.30;82.70;;;;;;5082053;28;19962;-74
2021/12/05 03:56:26;;;;;;;;;;;5.20;83.30;;;;;;5075271;28;20440;-74
2021/12/05 03:58:52;;;;;;;;;;;5.10;84.20;;;;;;5043750;28;19954;-74
2021/12/05 04:01:19;;;;;;;;;;;5.00;84.10;;;;;;5043740;28;20476;-74
2021/12/05 04:03:46;;;;;;;;;;;5.00;84.00;;;;;;5061587;28;20440;-74
2021/12/05 04:06:13;;;;;;;;;;;5.00;83.90;;;;;;5061475;28;20039;-74
2021/12/05 04:08:40;;;;;;;;;;;5.00;84.00;;;;;;5056510;28;19956;-74
2021/12/05 04:11:12;;;;;;;;;;;5.00;84.00;;;;;;5061984;28;19946;-74
2021/12/05 04:13:38;;;;;;;;;;;5.00;84.30;;;;;;5060971;28;19976;-74
2021/12/05 04:16:04;;;;;;;;;;;5.00;84.10;;;;;;5061340;28;19949;-74
2021/12/05 04:18:30;;;;;;;;;;;5.00;84.00;;;;;;5061957;28;19990;-74
2021/12/05 04:20:56;;;;;;;;;;;5.00;84.10;;;;;;5081869;28;20310;-74
2021/12/05 04:23:22;;;;;;;;;;;5.00;84.40;;;;;;5082054;28;19956;-74
2021/12/05 04:25:52;;;;;;;;;;;5.00;84.60;;;;;;5063533;28;20396;-74
2021/12/05 04:28:18;;;;;;;;;;;5.00;84.90;;;;;;5064046;28;20405;-74
2021/12/05 04:30:43;;;;;;;;;;;4.90;85.20;;;;;;5081975;28;19961;-74
2021/12/05 04:33:09;;;;;;;;;;;4.90;85.50;;;;;;5082110;28;19967;-74
2021/12/05 04:35:35;;;;;;;;;;;4.90;85.40;;;;;;5055177;28;20335;-74
2021/12/05 04:38:00;;;;;;;;;;;4.90;85.00;;;;;;5046149;28;19982;-74
2021/12/05 04:40:26;;;;;;;;;;;4.90;84.40;;;;;;5063288;28;19998;-74
2021/12/05 04:42:52;;;;;;;;;;;4.90;84.10;;;;;;5075580;28;19947;-74
2021/12/05 04:45:20;;;;;;;;;;;4.90;84.50;;;;;;5043762;28;19951;-74
2021/12/05 04:47:46;;;;;;;;;;;4.90;84.50;;;;;;5043025;28;20344;-74
2021/12/05 04:50:12;;;;;;;;;;;4.90;84.30;;;;;;5061295;28;20419;-74
2021/12/05 04:52:37;;;;;;;;;;;4.90;84.30;;;;;;5078045;28;20427;-74
2021/12/05 04:55:04;;;;;;;;;;;4.90;84.20;;;;;;5081997;28;20181;-74
2021/12/05 04:57:29;;;;;;;;;;;4.90;83.70;;;;;;5047919;28;19951;-74
2021/12/05 04:59:55;;;;;;;;;;;4.90;83.30;;;;;;5043394;28;20011;-74
2021/12/05 05:02:21;;;;;;;;;;;4.90;83.00;;;;;;5060386;28;19946;-74
2021/12/05 05:04:48;;;;;;;;;;;4.90;82.80;;;;;;5061350;28;20471;-74
2021/12/05 05:07:26;;;;;;;;;;;4.90;82.50;;;;;;5057087;28;19974;-74
2021/12/05 05:09:53;;;;;;;;;;;4.90;82.90;;;;;;5060081;28;19953;-74
2021/12/05 05:12:19;;;;;;;;;;;4.90;83.20;;;;;;5060859;28;20596;-74
2021/12/05 05:14:44;;;;;;;;;;;4.90;83.40;;;;;;5059367;28;20148;-74
2021/12/05 05:17:10;;;;;;;;;;;4.90;83.70;;;;;;5061435;28;19949;-74
2021/12/05 05:19:40;;;;;;;;;;;4.80;84.00;;;;;;5061204;28;20323;-74
2021/12/05 05:27:52;;;;;;;;;;;4.80;85.00;;;;;;5061315;28;19985;-74
2021/12/05 05:47:14;;;;;;;;;;;4.50;88.90;;;;;;5079913;28;19960;-74
2021/12/05 05:49:16;;;;;;;;;;;4.50;89.00;;;;;;5061940;28;19944;-75
2021/12/05 05:51:42;;;;;;;;;;;4.50;89.20;;;;;;5061351;28;19986;-75
2021/12/05 05:54:08;;;;;;;;;;;4.50;89.70;;;;;;5080061;28;20424;-75
2021/12/05 05:56:35;;;;;;;;;;;4.50;90.00;;;;;;5072431;28;19977;-75
2021/12/05 05:59:11;;;;;;;;;;;4.50;90.10;;;;;;5068237;28;19987;-75
2021/12/05 06:04:03;;;;;;;;;;;4.50;90.70;;;;;;5059240;28;20227;-75
2021/12/05 06:06:31;;;;;;;;;;;4.40;91.00;;;;;;5055585;28;19953;-75
2021/12/05 06:08:56;;;;;;;;;;;4.40;91.30;;;;;;5057542;28;20655;-75
2021/12/05 06:11:22;;;;;;;;;;;4.40;91.40;;;;;;5060888;28;19945;-75
2021/12/05 06:13:48;;;;;;;;;;;4.40;91.40;;;;;;5054961;28;20176;-75
2021/12/05 06:16:14;;;;;;;;;;;4.40;91.50;;;;;;5045320;28;19950;-75
2021/12/05 06:18:40;;;;;;;;;;;4.40;91.60;;;;;;5063190;28;20005;-75
2021/12/05 06:21:06;;;;;;;;;;;4.40;91.60;;;;;;5063258;28;20496;-75
2021/12/05 06:23:32;;;;;;;;;;;4.40;91.80;;;;;;5062887;28;20363;-75
2021/12/05 06:25:58;;;;;;;;;;;4.40;91.90;;;;;;5044403;28;19941;-75
2021/12/05 06:39:18;;;;;;;;;;;4.40;92.30;;;;;;5082986;28;20432;-75
2021/12/05 06:41:53;;;;;;;;;;;4.40;92.30;;;;;;5081875;28;19944;-75
2021/12/05 06:46:44;;;;;;;;;;;4.40;92.40;;;;;;5082198;28;20036;-75
2021/12/05 06:49:10;;;;;;;;;;;4.40;92.40;;;;;;5082427;28;20322;-75
2021/12/05 06:51:36;;;;;;;;;;;4.40;92.40;;;;;;5082516;28;19964;-75
2021/12/05 06:54:01;;;;;;;;;;;4.40;92.40;;;;;;5082717;28;20534;-75
2021/12/05 06:56:27;;;;;;;;;;;4.40;92.40;;;;;;5056818;28;20356;-75
2021/12/05 06:58:53;;;;;;;;;;;4.40;92.40;;;;;;5043612;28;20433;-75
2021/12/05 07:01:19;;;;;;;;;;;4.40;92.50;;;;;;5062356;28;20783;-75
2021/12/05 07:03:47;;;;;;;;;;;4.50;92.80;;;;;;5062333;28;19950;-75
2021/12/05 07:06:23;;;;;;;;;;;4.50;92.50;;;;;;5062041;28;19945;-75
2021/12/05 07:08:52;;;;;;;;;;;4.40;92.60;;;;;;5057745;28;20132;-75
2021/12/05 07:11:25;;;;;;;;;;;4.50;92.90;;;;;;5062560;28;19958;-75
2021/12/05 07:16:45;;;;;;;;;;;4.40;92.80;;;;;;5061633;28;19953;-75
2021/12/05 07:19:25;;;;;;;;;;;4.50;92.80;;;;;;5061460;28;20289;-75
2021/12/05 07:22:14;;;;;;;;;;;4.50;92.80;;;;;;5071096;28;19946;-75
2021/12/05 07:40:50;;;;;;;;;;;4.60;92.60;;;;;;5061616;28;20027;-75
2021/12/05 07:43:16;;;;;;;;;;;4.50;92.50;;;;;;5043617;28;20325;-75
2021/12/05 07:45:48;;;;;;;;;;;4.50;92.50;;;;;;5061455;28;19948;-75
2021/12/05 07:48:25;;;;;;;;;;;4.50;92.60;;;;;;5043754;28;19957;-75
2021/12/05 07:51:07;;;;;;;;;;;4.40;92.90;;;;;;5061678;28;19986;-75
2021/12/05 07:53:43;;;;;;;;;;;4.40;93.00;;;;;;5063576;28;20527;-75
2021/12/05 07:56:16;;;;;;;;;;;4.50;93.20;;;;;;5059049;28;19944;-75
2021/12/05 08:15:06;;;;;;;;;;;4.70;92.80;;;;;;5061034;28;19974;-75
2021/12/05 08:17:32;;;;;;;;;;;4.80;92.50;;;;;;5061694;28;19948;-75
2021/12/05 08:19:57;;;;;;;;;;;4.70;92.20;;;;;;5061626;28;19956;-75
2021/12/05 08:22:24;;;;;;;;;;;4.70;91.90;;;;;;5061526;28;19948;-75
2021/12/05 08:24:51;;;;;;;;;;;4.60;91.90;;;;;;5061512;28;19953;-75
2021/12/05 08:27:17;;;;;;;;;;;4.60;91.90;;;;;;5060996;28;20522;-75
2021/12/05 08:29:53;;;;;;;;;;;4.60;92.10;;;;;;5080321;28;19950;-75
2021/12/05 08:32:37;;;;;;;;;;;4.70;92.40;;;;;;5081398;28;20033;-75
2021/12/05 08:38:48;;;;;;;;;;;4.80;91.90;;;;;;5029407;28;20306;-75
2021/12/05 08:43:58;;;;;;;;;;;4.90;91.10;;;;;;5071678;28;19947;-75
2021/12/05 10:10:28;;;;;;;;;;;6.30;86.30;;;;;;5076016;28;19955;-75
2021/12/05 10:27:08;;;;;;;;;;;7.40;82.00;;;;;;5083465;28;20053;-75
2021/12/05 10:35:37;;;;;;;;;;;8.50;79.80;;;;;;5083538;28;20001;-75
2021/12/05 10:38:08;;;;;;;;;;;8.80;78.80;;;;;;5065898;28;19944;-75
2021/12/05 10:40:46;;;;;;;;;;;8.80;75.40;;;;;;5067844;28;19995;-75
2021/12/05 10:43:19;;;;;;;;;;;8.80;75.60;;;;;;5064084;28;20442;-75
2021/12/05 10:45:50;;;;;;;;;;;8.70;74.70;;;;;;5063688;28;19955;-76
2021/12/05 10:48:26;;;;;;;;;;;8.60;74.90;;;;;;5064254;28;19953;-76
2021/12/05 10:51:12;;;;;;;;;;;8.50;75.20;;;;;;5063815;28;20197;-75
2021/12/05 10:53:38;;;;;;;;;;;8.40;76.60;;;;;;5063457;28;19963;-75
2021/12/05 10:56:03;;;;;;;;;;;8.40;77.70;;;;;;5045796;28;19950;-76
2021/12/05 10:58:55;;;;;;;;;;;8.40;78.00;;;;;;5063296;28;20347;-75
2021/12/05 11:01:23;;;;;;;;;;;8.40;76.80;;;;;;5045053;28;19950;-75
2021/12/05 11:03:51;;;;;;;;;;;8.30;74.90;;;;;;5060618;28;19947;-75
2021/12/05 11:06:22;;;;;;;;;;;8.40;76.40;;;;;;5062127;28;19946;-75
2021/12/05 11:08:51;;;;;;;;;;;8.60;76.30;;;;;;5057205;28;19956;-75
2021/12/05 11:11:17;;;;;;;;;;;8.80;74.60;;;;;;5062406;28;19950;-75
2021/12/05 11:13:43;;;;;;;;;;;9.20;73.40;;;;;;5061773;28;19979;-76
2021/12/05 11:16:28;;;;;;;;;;;9.50;73.10;;;;;;5062768;28;19950;-75
2021/12/05 11:18:53;;;;;;;;;;;9.80;72.00;;;;;;5043802;28;20462;-75
2021/12/05 11:21:34;;;;;;;;;;;10.00;71.80;;;;;;5043758;28;19953;-75
2021/12/05 11:24:07;;;;;;;;;;;10.20;69.80;;;;;;5062422;28;20420;-75
2021/12/05 11:26:34;;;;;;;;;;;10.00;69.10;;;;;;5062033;28;19961;-75
2021/12/05 11:29:00;;;;;;;;;;;9.80;69.10;;;;;;5067037;28;19943;-75
2021/12/05 11:31:27;;;;;;;;;;;9.70;69.60;;;;;;5063834;28;19946;-75
2021/12/05 11:33:56;;;;;;;;;;;9.40;69.10;;;;;;5083300;28;19934;-73
2021/12/05 11:36:23;;;;;;;;;;;9.30;70.50;;;;;;5075499;28;19949;-73
2021/12/05 11:38:49;;;;;;;;;;;9.30;71.20;;;;;;5044049;28;20432;-73
2021/12/05 11:41:20;;;;;;;;;;;9.40;70.30;;;;;;5044118;28;19982;-73
2021/12/05 11:43:56;;;;;;;;;;;9.40;69.00;;;;;;5061644;28;20508;-73
2021/12/05 11:46:27;;;;;;;;;;;9.50;69.20;;;;;;5080914;28;19945;-73
2021/12/05 11:48:59;;;;;;;;;;;9.50;70.00;;;;;;5082029;28;20356;-73
2021/12/05 11:51:28;;;;;;;;;;;9.50;68.80;;;;;;5082590;28;19992;-72
2021/12/05 11:54:03;;;;;;;;;;;9.40;68.40;;;;;;5082753;28;19980;-73
2021/12/05 11:56:31;;;;;;;;;;;9.30;70.10;;;;;;5074565;28;20056;-73
2021/12/05 11:59:12;;;;;;;;;;;9.20;70.60;;;;;;5062213;28;19949;-73
2021/12/05 12:01:49;;;;;;;;;;;9.10;71.70;;;;;;5048329;28;19974;-73
2021/12/05 12:04:17;;;;;;;;;;;8.90;71.80;;;;;;5082548;28;19952;-73
2021/12/05 12:06:43;;;;;;;;;;;8.80;73.00;;;;;;5061741;28;19963;-73
2021/12/05 12:09:09;;;;;;;;;;;8.80;73.90;;;;;;5059985;28;20345;-73
2021/12/05 12:11:34;;;;;;;;;;;8.90;74.60;;;;;;5081584;28;19951;-73
2021/12/05 12:14:01;;;;;;;;;;;9.10;74.20;;;;;;5063488;28;19999;-74
2021/12/05 12:16:33;;;;;;;;;;;9.30;73.70;;;;;;5081731;28;19956;-75
2021/12/05 12:18:58;;;;;;;;;;;9.40;73.40;;;;;;5081966;28;19992;-75
2021/12/05 12:21:26;;;;;;;;;;;9.50;72.00;;;;;;5063499;28;20349;-73
2021/12/05 12:23:54;;;;;;;;;;;9.50;72.10;;;;;;5081375;28;19942;-73
2021/12/05 12:26:20;;;;;;;;;;;9.50;72.90;;;;;;5080988;28;20049;-73
2021/12/05 12:28:46;;;;;;;;;;;9.50;72.90;;;;;;5082104;28;19953;-73
2021/12/05 12:31:17;;;;;;;;;;;9.50;72.80;;;;;;5082239;28;19946;-73
2021/12/05 12:33:47;;;;;;;;;;;9.70;73.00;;;;;;5081380;28;20069;-73
2021/12/05 12:36:12;;;;;;;;;;;9.80;71.60;;;;;;5073651;28;20385;-74
2021/12/05 12:38:40;;;;;;;;;;;9.90;70.90;;;;;;5061136;28;20117;-74
2021/12/05 12:41:05;;;;;;;;;;;9.90;70.90;;;;;;5061765;28;20503;-73
2021/12/05 12:43:40;;;;;;;;;;;9.80;70.20;;;;;;5060944;28;20020;-73
2021/12/05 12:46:17;;;;;;;;;;;9.90;69.50;;;;;;5042881;28;20003;-73
2021/12/05 12:48:43;;;;;;;;;;;9.90;69.20;;;;;;5061321;28;19953;-74
2021/12/05 12:51:23;;;;;;;;;;;9.50;69.10;;;;;;5066592;28;20384;-73
2021/12/05 12:53:53;;;;;;;;;;;9.40;70.50;;;;;;5064729;28;19976;-74
2021/12/05 12:56:23;;;;;;;;;;;9.40;72.00;;;;;;5081073;28;19987;-73
2021/12/05 12:58:55;;;;;;;;;;;9.60;69.20;;;;;;5057813;28;19986;-73
2021/12/05 13:10:09;;;;;;;;;;;10.60;67.90;;;;;;5038281;28;20380;-74
2021/12/05 13:12:41;;;;;;;;;;;11.10;66.50;;;;;;5030562;28;19955;-74
2021/12/05 13:15:08;;;;;;;;;;;11.70;64.30;;;;;;5022591;28;20006;-73
2021/12/05 13:17:44;;;;;;;;;;;12.00;63.40;;;;;;5040236;28;19960;-73
2021/12/05 13:20:11;;;;;;;;;;;12.40;63.70;;;;;;5040485;28;20563;-73
2021/12/05 13:22:55;;;;;;;;;;;13.00;61.20;;;;;;5040233;28;19948;-75
2021/12/05 13:25:21;;;;;;;;;;;13.60;61.00;;;;;;5065103;28;20042;-73
2021/12/05 13:27:46;;;;;;;;;;;14.30;58.40;;;;;;5080315;28;20369;-75
2021/12/05 13:30:26;;;;;;;;;;;14.60;58.10;;;;;;5080314;28;19998;-73
2021/12/05 13:33:11;;;;;;;;;;;14.70;57.20;;;;;;5080603;28;19945;-73
2021/12/05 13:35:38;;;;;;;;;;;13.90;58.00;;;;;;5079977;28;19952;-73
2021/12/05 13:38:04;;;;;;;;;;;13.20;60.60;;;;;;5062390;28;19953;-73
2021/12/05 13:40:32;;;;;;;;;;;12.40;62.50;;;;;;5080164;28;19988;-73
2021/12/05 13:43:05;;;;;;;;;;;11.80;64.80;;;;;;5080455;28;19956;-73
2021/12/05 13:45:36;;;;;;;;;;;11.30;67.20;;;;;;5080143;28;19953;-73
2021/12/05 13:48:01;;;;;;;;;;;10.80;69.40;;;;;;5061573;28;20054;-74
2021/12/05 13:50:32;;;;;;;;;;;10.40;70.90;;;;;;5062130;28;20085;-74
2021/12/05 13:53:05;;;;;;;;;;;10.10;72.10;;;;;;5080661;28;19955;-73
2021/12/05 13:55:37;;;;;;;;;;;10.00;73.70;;;;;;5080119;28;20465;-74
2021/12/05 13:58:13;;;;;;;;;;;9.90;73.80;;;;;;5039729;28;20479;-74
2021/12/05 14:00:40;;;;;;;;;;;9.70;74.90;;;;;;5052161;28;19973;-74
2021/12/05 14:03:06;;;;;;;;;;;9.60;75.40;;;;;;5042354;28;20399;-74
2021/12/05 14:05:31;;;;;;;;;;;9.50;76.20;;;;;;5059628;28;19990;-74
2021/12/05 14:07:57;;;;;;;;;;;9.40;75.70;;;;;;5053879;28;19952;-74
2021/12/05 14:10:22;;;;;;;;;;;9.40;75.40;;;;;;5041843;28;20382;-74
2021/12/05 14:12:48;;;;;;;;;;;9.30;75.70;;;;;;5059334;28;19982;-74
2021/12/05 14:15:15;;;;;;;;;;;9.30;76.40;;;;;;5068136;28;20033;-74
2021/12/05 14:17:43;;;;;;;;;;;9.30;76.80;;;;;;5074434;28;20041;-74
2021/12/05 14:20:12;;;;;;;;;;;9.20;76.60;;;;;;5060364;28;19938;-74
2021/12/05 14:22:38;;;;;;;;;;;9.20;77.10;;;;;;5071522;28;20112;-74
2021/12/05 14:25:07;;;;;;;;;;;9.20;77.30;;;;;;5079701;28;19947;-74
2021/12/05 14:27:34;;;;;;;;;;;9.40;77.80;;;;;;5079547;28;20277;-74
2021/12/05 14:30:00;;;;;;;;;;;10.30;76.30;;;;;;5080148;28;19956;-74
2021/12/05 14:32:28;;;;;;;;;;;11.30;73.60;;;;;;5079629;28;19953;-74
2021/12/05 14:34:56;;;;;;;;;;;12.10;69.50;;;;;;5079841;28;19973;-74
2021/12/05 14:37:24;;;;;;;;;;;12.70;66.50;;;;;;5082689;28;19944;-74
2021/12/05 14:39:59;;;;;;;;;;;12.70;65.80;;;;;;5083996;28;19988;-74
2021/12/05 14:42:29;;;;;;;;;;;12.40;65.00;;;;;;5084398;28;20376;-74
2021/12/05 14:44:57;;;;;;;;;;;11.70;66.60;;;;;;5065504;28;19993;-74
2021/12/05 14:47:24;;;;;;;;;;;11.10;68.80;;;;;;5079215;28;19950;-74
2021/12/05 14:49:51;;;;;;;;;;;10.50;71.30;;;;;;5046588;28;20278;-74
2021/12/05 14:52:19;;;;;;;;;;;10.10;72.70;;;;;;5063522;28;20445;-74
2021/12/05 14:54:45;;;;;;;;;;;9.90;73.40;;;;;;5063979;28;19970;-74
2021/12/05 14:57:15;;;;;;;;;;;9.40;74.80;;;;;;5045602;28;19943;-74
2021/12/05 14:59:42;;;;;;;;;;;9.20;76.20;;;;;;5063309;28;20386;-74
2021/12/05 15:02:08;;;;;;;;;;;8.80;78.20;;;;;;5045650;28;20007;-74
2021/12/05 15:04:36;;;;;;;;;;;8.40;79.60;;;;;;5063157;28;20266;-73
2021/12/05 15:07:02;;;;;;;;;;;8.20;80.60;;;;;;5059940;28;20001;-73
2021/12/05 15:09:30;;;;;;;;;;;7.90;81.70;;;;;;5060521;28;20072;-74
2021/12/05 15:11:59;;;;;;;;;;;7.70;83.10;;;;;;5063095;28;19957;-74
2021/12/05 15:14:25;;;;;;;;;;;7.50;84.30;;;;;;5062492;28;20002;-74
2021/12/05 15:17:04;;;;;;;;;;;7.40;85.00;;;;;;5062699;28;20518;-74
2021/12/05 15:19:30;;;;;;;;;;;7.40;85.30;;;;;;5062885;28;20392;-74
2021/12/05 15:21:55;;;;;;;;;;;7.40;85.50;;;;;;5052045;28;20788;-74
2021/12/05 15:24:22;;;;;;;;;;;7.40;85.50;;;;;;5083372;28;19998;-74
2021/12/05 15:26:49;;;;;;;;;;;7.40;85.60;;;;;;5063922;28;20353;-73
2021/12/05 15:29:15;;;;;;;;;;;7.30;86.00;;;;;;5082704;28;20483;-73
2021/12/05 15:31:42;;;;;;;;;;;7.20;86.30;;;;;;5064295;28;19951;-74
2021/12/05 15:34:18;;;;;;;;;;;7.20;86.60;;;;;;5064559;28;19965;-74
2021/12/05 15:36:43;;;;;;;;;;;7.20;86.70;;;;;;5073655;28;19959;-73
2021/12/05 15:39:10;;;;;;;;;;;7.20;86.60;;;;;;5063874;28;19985;-74
2021/12/05 15:41:36;;;;;;;;;;;7.30;86.50;;;;;;5062364;28;20071;-74
2021/12/05 15:44:01;;;;;;;;;;;7.30;86.20;;;;;;5067799;28;19962;-73
2021/12/05 15:46:27;;;;;;;;;;;7.40;85.80;;;;;;5082496;28;19949;-74
2021/12/05 15:48:55;;;;;;;;;;;7.30;85.60;;;;;;5082499;28;19943;-74
2021/12/05 15:51:21;;;;;;;;;;;7.30;85.90;;;;;;5082167;28;20394;-74
2021/12/05 15:53:47;;;;;;;;;;;7.20;86.20;;;;;;5066213;28;19966;-74
2021/12/05 15:56:15;;;;;;;;;;;7.10;86.50;;;;;;5045977;28;19990;-74
2021/12/05 15:58:42;;;;;;;;;;;7.00;86.80;;;;;;5060734;28;19951;-74
2021/12/05 16:01:11;;;;;;;;;;;7.10;86.80;;;;;;5060938;28;19954;-74
2021/12/05 16:03:39;;;;;;;;;;;7.10;86.70;;;;;;5062533;28;19946;-73
2021/12/05 16:06:05;;;;;;;;;;;7.10;86.60;;;;;;5061795;28;20039;-73
2021/12/05 16:08:31;;;;;;;;;;;7.10;86.60;;;;;;5056377;28;19945;-74
2021/12/05 16:10:59;;;;;;;;;;;7.00;86.70;;;;;;5061535;28;19944;-74
2021/12/05 16:13:32;;;;;;;;;;;7.00;86.80;;;;;;5061908;28;20037;-73
2021/12/05 16:16:06;;;;;;;;;;;7.00;86.80;;;;;;5061192;28;19946;-73
2021/12/05 16:18:33;;;;;;;;;;;7.10;86.60;;;;;;5062578;28;19975;-73
2021/12/05 16:21:05;;;;;;;;;;;7.00;86.60;;;;;;5044170;28;19950;-73
2021/12/05 16:23:35;;;;;;;;;;;6.90;86.70;;;;;;5044286;28;20563;-74
2021/12/05 16:26:00;;;;;;;;;;;6.90;86.90;;;;;;5062005;28;19962;-73
2021/12/05 16:28:29;;;;;;;;;;;6.90;87.10;;;;;;5062257;28;20051;-73
2021/12/05 16:31:05;;;;;;;;;;;6.80;87.20;;;;;;5062554;28;19954;-73
2021/12/05 16:33:31;;;;;;;;;;;6.80;87.30;;;;;;5062017;28;20379;-73
2021/12/05 16:35:58;;;;;;;;;;;6.70;87.40;;;;;;5043419;28;19944;-74
2021/12/05 16:38:24;;;;;;;;;;;6.70;87.50;;;;;;5044188;28;20367;-74
2021/12/05 16:40:58;;;;;;;;;;;6.70;87.70;;;;;;5043782;28;19955;-73
2021/12/05 16:43:24;;;;;;;;;;;6.70;87.80;;;;;;5046368;28;20003;-73
2021/12/05 16:45:54;;;;;;;;;;;6.70;87.80;;;;;;5082203;28;19991;-73
2021/12/05 16:48:20;;;;;;;;;;;6.70;87.60;;;;;;5081908;28;19945;-73
2021/12/05 16:50:45;;;;;;;;;;;6.70;87.40;;;;;;5082382;28;19951;-74
2021/12/05 16:53:13;;;;;;;;;;;6.60;87.40;;;;;;5082703;28;19940;-73
2021/12/05 16:55:42;;;;;;;;;;;6.60;87.40;;;;;;5064396;28;19958;-73
2021/12/05 16:58:17;;;;;;;;;;;6.50;87.60;;;;;;5062512;28;19940;-73
2021/12/05 17:00:45;;;;;;;;;;;6.40;87.70;;;;;;5072137;28;20072;-73
2021/12/05 17:03:16;;;;;;;;;;;6.40;87.80;;;;;;5070852;28;20092;-73
2021/12/05 17:05:44;;;;;;;;;;;6.30;88.00;;;;;;5063538;28;19985;-73
2021/12/05 17:08:13;;;;;;;;;;;6.30;88.10;;;;;;5058177;28;19953;-75
2021/12/05 17:10:38;;;;;;;;;;;6.20;88.20;;;;;;5081779;28;20543;-73
2021/12/05 17:13:12;;;;;;;;;;;6.20;88.40;;;;;;5082262;28;19942;-73
2021/12/05 17:15:44;;;;;;;;;;;6.20;88.60;;;;;;5075903;28;20028;-75
2021/12/05 17:18:14;;;;;;;;;;;6.20;88.70;;;;;;5061669;28;20227;-73
2021/12/05 17:20:47;;;;;;;;;;;6.20;88.70;;;;;;5061652;28;19990;-73
2021/12/05 17:23:18;;;;;;;;;;;6.20;88.80;;;;;;5044015;28;19951;-73
2021/12/05 17:25:45;;;;;;;;;;;6.20;89.00;;;;;;5060886;28;20405;-74
2021/12/05 17:28:17;;;;;;;;;;;6.20;89.10;;;;;;5061843;28;19951;-74
2021/12/05 17:30:53;;;;;;;;;;;6.20;89.20;;;;;;5061768;28;19946;-74
2021/12/05 17:33:26;;;;;;;;;;;6.20;89.30;;;;;;5054476;28;20643;-74
2021/12/05 17:35:52;;;;;;;;;;;6.30;89.30;;;;;;5082050;28;19948;-74
2021/12/05 17:38:29;;;;;;;;;;;6.30;89.50;;;;;;5071339;22;19995;-75
2021/12/05 17:40:54;;;;;;;;;;;6.30;89.60;;;;;;5080579;28;19974;-74
2021/12/05 17:43:20;;;;;;;;;;;6.30;89.70;;;;;;5081105;28;19955;-75
2021/12/05 17:45:45;;;;;;;;;;;6.40;89.90;;;;;;5081476;28;19947;-74
2021/12/05 17:48:11;;;;;;;;;;;6.40;90.10;;;;;;5081286;28;19952;-75
2021/12/05 17:50:38;;;;;;;;;;;6.30;90.10;;;;;;5081161;28;19940;-74
2021/12/05 17:53:04;;;;;;;;;;;6.10;90.20;;;;;;5081298;28;20335;-75
2021/12/05 17:55:32;;;;;;;;;;;6.00;90.40;;;;;;5080800;28;20730;-74
2021/12/05 17:58:07;;;;;;;;;;;6.00;90.70;;;;;;5080337;28;20064;-74
2021/12/05 18:00:45;;;;;;;;;;;6.00;91.00;;;;;;5069102;28;19995;-74
2021/12/05 18:03:11;;;;;;;;;;;6.00;91.30;;;;;;5061425;28;19942;-74
2021/12/05 18:05:39;;;;;;;;;;;6.10;91.50;;;;;;5061374;28;19949;-74
2021/12/05 18:08:10;;;;;;;;;;;6.00;91.60;;;;;;5071036;28;19951;-74
2021/12/05 18:10:36;;;;;;;;;;;6.10;91.80;;;;;;5063783;28;19947;-74
2021/12/05 18:13:04;;;;;;;;;;;6.10;91.90;;;;;;5084917;28;20166;-74
2021/12/05 18:15:34;;;;;;;;;;;6.00;92.10;;;;;;5066177;28;20331;-74
2021/12/05 18:18:00;;;;;;;;;;;6.00;92.30;;;;;;5066368;28;20348;-74
2021/12/05 18:20:30;;;;;;;;;;;6.00;92.30;;;;;;5084324;28;19959;-74
2021/12/05 18:22:57;;;;;;;;;;;6.10;92.60;;;;;;5072193;28;19950;-74
2021/12/05 18:25:23;;;;;;;;;;;6.10;92.70;;;;;;5081164;28;20006;-74
2021/12/05 18:27:49;;;;;;;;;;;6.10;92.90;;;;;;5084525;28;19956;-74
2021/12/05 18:30:16;;;;;;;;;;;6.10;92.90;;;;;;5084373;28;19957;-74
2021/12/05 18:32:42;;;;;;;;;;;6.10;92.90;;;;;;5066254;28;19961;-74
2021/12/05 18:35:09;;;;;;;;;;;6.10;92.90;;;;;;5065840;28;19973;-74
2021/12/05 18:37:35;;;;;;;;;;;6.10;92.90;;;;;;5065866;28;19951;-74
2021/12/05 18:40:01;;;;;;;;;;;6.10;92.90;;;;;;5083258;28;19994;-74
2021/12/05 18:42:26;;;;;;;;;;;6.10;92.90;;;;;;5084565;28;20081;-74
2021/12/05 18:44:58;;;;;;;;;;;6.10;93.00;;;;;;5084382;28;19951;-74
2021/12/05 18:47:26;;;;;;;;;;;6.10;93.10;;;;;;5082964;28;20540;-74
2021/12/05 18:49:52;;;;;;;;;;;6.10;93.20;;;;;;5083550;28;19949;-75
2021/12/05 18:52:18;;;;;;;;;;;6.20;93.20;;;;;;5083985;28;19948;-74
2021/12/05 18:54:45;;;;;;;;;;;6.20;93.20;;;;;;5065805;28;19974;-74
2021/12/05 18:57:16;;;;;;;;;;;6.30;93.20;;;;;;5083639;28;19985;-74
2021/12/05 19:00:07;;;;;;;;;;;6.40;93.10;;;;;;5083547;28;19975;-74
2021/12/05 19:05:56;;;;;;;;;;;6.40;92.80;;;;;;5020906;28;19947;-74
2021/12/05 19:13:39;;;;;;;;;;;6.30;91.70;;;;;;5084296;28;20080;-74
2021/12/05 19:16:05;;;;;;;;;;;6.20;91.50;;;;;;5083975;28;19939;-74
2021/12/05 19:18:32;;;;;;;;;;;6.10;91.50;;;;;;5083802;28;19951;-74
2021/12/05 19:20:57;;;;;;;;;;;6.00;91.40;;;;;;5083777;28;20404;-74
2021/12/05 19:23:23;;;;;;;;;;;6.00;91.50;;;;;;5064717;28;20489;-74
2021/12/05 19:25:49;;;;;;;;;;;6.00;91.30;;;;;;5083515;28;19960;-74
2021/12/05 19:28:14;;;;;;;;;;;6.10;91.10;;;;;;5084487;28;19939;-74
2021/12/05 19:30:43;;;;;;;;;;;6.10;90.70;;;;;;5083416;28;19966;-74
2021/12/05 19:33:09;;;;;;;;;;;6.10;90.40;;;;;;5083917;28;19956;-75
2021/12/05 19:35:36;;;;;;;;;;;6.10;90.20;;;;;;5083440;28;19977;-74
2021/12/05 19:38:02;;;;;;;;;;;6.10;90.10;;;;;;5065240;28;20028;-74
2021/12/05 19:40:28;;;;;;;;;;;6.20;90.00;;;;;;5083277;28;19986;-74
2021/12/05 19:42:57;;;;;;;;;;;6.20;89.90;;;;;;5065134;28;19952;-74
2021/12/05 19:45:23;;;;;;;;;;;6.30;89.60;;;;;;5083681;28;20399;-74
2021/12/05 19:47:49;;;;;;;;;;;6.30;89.20;;;;;;5083245;28;19957;-74
2021/12/05 19:50:16;;;;;;;;;;;6.30;89.00;;;;;;5083216;28;19949;-75
2021/12/05 19:52:42;;;;;;;;;;;6.30;88.90;;;;;;5083254;28;19953;-74
2021/12/05 19:55:08;;;;;;;;;;;6.30;88.70;;;;;;5083635;28;19960;-74